Cobalt, Canada
Current Conditions -  °F | °C
As of 11:00 AM on Wednesday 26 Nov 2014 (Local Time) from CYXR Reporting Station
Clear Clear  
Wind Chill:   Ceiling: Unl
Heat Index: 18°   Visibility: 9mi
Dew Point: 14°   Wind: 7mph
Humidity: 86%   Direction: 140°SE
Pressure: 30.25"   Gusts: NA
Location:  47.38°N, 79.68°W
Report Text: CYXR 261600Z AUTO 14006KT 9SM CLR M08/M10 A3025 RMK SLP261
Loading
Personal Weather Stations






























Interactive Weather Map New forecast layout! Learn more

10-Day Weather Forecast

Advertisements
Track Severe Weather on mobile